Time;durP1;ratioP1;P1;durP2;ratioP2;P2;SDS_P1;SDS_P2;PMS_P1;PMS_P2;Temp;Humidity;BMP_temperature;BMP_pressure;BME280_temperature;BME280_humidity;BME280_pressure;Samples;Min_cycle;Max_cycle;Signal;HPM_P1;HPM_P2
2024/01/08 00:02:12;;;;;;;28.00;16.50;;;;;;;-7.66;73.77;102886.54;109051;1259;137027;-90
2024/01/08 00:04:38;;;;;;;34.20;18.00;;;;;;;-7.67;73.83;102890.23;108511;1255;66344;-90
2024/01/08 00:07:05;;;;;;;41.40;22.30;;;;;;;-7.68;73.90;102888.08;108635;1254;139352;-88
2024/01/08 00:09:32;;;;;;;36.20;20.80;;;;;;;-7.63;74.00;102887.77;108622;1254;57973;-89
2024/01/08 00:11:59;;;;;;;32.10;16.60;;;;;;;-7.55;73.99;102891.48;108882;1255;59010;-88
2024/01/08 00:14:26;;;;;;;31.50;17.50;;;;;;;-7.52;73.93;102894.82;108748;1259;137305;-88
2024/01/08 00:16:52;;;;;;;24.40;14.50;;;;;;;-7.50;74.04;102893.80;107419;1254;65436;-89
2024/01/08 00:19:20;;;;;;;34.00;16.10;;;;;;;-7.51;73.91;102897.63;106691;1256;138416;-88
2024/01/08 00:21:46;;;;;;;27.50;14.80;;;;;;;-7.52;73.83;102903.00;106666;1254;60455;-89
2024/01/08 00:24:13;;;;;;;28.70;15.30;;;;;;;-7.55;73.84;102906.55;106709;1259;60505;-89
2024/01/08 00:26:40;;;;;;;24.80;15.30;;;;;;;-7.54;73.90;102905.70;106345;1262;138345;-89
2024/01/08 00:29:06;;;;;;;28.90;14.90;;;;;;;-7.56;73.52;102903.50;106656;1256;67376;-89
2024/01/08 00:31:33;;;;;;;26.00;14.80;;;;;;;-7.57;73.50;102905.12;106253;1262;138631;-89
2024/01/08 00:34:00;;;;;;;25.00;13.70;;;;;;;-7.58;73.70;102909.64;106472;1260;60360;-89
2024/01/08 00:36:27;;;;;;;18.00;11.70;;;;;;;-7.57;73.89;102912.91;106233;1257;138977;-88
2024/01/08 00:38:54;;;;;;;20.80;12.80;;;;;;;-7.60;73.40;102913.52;106454;1261;73774;-89
2024/01/08 00:41:21;;;;;;;20.30;12.70;;;;;;;-7.66;73.77;102914.48;106637;1261;64994;-88
2024/01/08 00:43:49;;;;;;;20.20;11.70;;;;;;;-7.66;73.93;102923.04;106498;1267;139200;-87
2024/01/08 00:46:15;;;;;;;21.40;12.10;;;;;;;-7.67;73.96;102935.25;106650;1256;60481;-88
2024/01/08 00:48:42;;;;;;;18.60;11.20;;;;;;;-7.72;74.02;102929.56;106463;1254;139285;-87
2024/01/08 00:51:09;;;;;;;23.50;13.90;;;;;;;-7.74;73.99;102929.38;106632;1263;72570;-87
2024/01/08 00:53:36;;;;;;;22.70;13.50;;;;;;;-7.71;73.96;102934.72;106590;1254;65069;-87
2024/01/08 00:56:03;;;;;;;24.80;14.40;;;;;;;-7.68;74.18;102933.12;106398;1257;138592;-88
2024/01/08 00:58:30;;;;;;;22.60;14.00;;;;;;;-7.64;74.51;102936.22;106717;1254;61838;-87
2024/01/08 01:00:56;;;;;;;23.60;13.30;;;;;;;-7.64;74.58;102938.61;106697;1256;138718;-89
2024/01/08 01:03:23;;;;;;;25.30;13.70;;;;;;;-7.68;74.38;102931.45;106676;1255;72585;-90
2024/01/08 01:05:50;;;;;;;24.40;15.20;;;;;;;-7.65;74.58;102937.98;106738;1254;64987;-89
2024/01/08 01:08:17;;;;;;;24.80;13.80;;;;;;;-7.63;74.72;102937.42;106495;1256;138695;-88
2024/01/08 01:10:44;;;;;;;30.40;14.20;;;;;;;-7.62;74.77;102940.25;106630;1258;60821;-88
2024/01/08 01:13:10;;;;;;;21.70;12.70;;;;;;;-7.63;74.84;102938.05;106664;1254;138543;-89
2024/01/08 01:15:37;;;;;;;22.50;13.20;;;;;;;-7.60;74.79;102937.17;106595;1261;74251;-89
2024/01/08 01:18:04;;;;;;;23.10;12.90;;;;;;;-7.60;75.09;102938.75;106627;1254;66279;-88
2024/01/08 01:20:31;;;;;;;23.30;13.10;;;;;;;-7.66;74.49;102940.02;106399;1255;140336;-88
2024/01/08 01:22:57;;;;;;;23.00;13.60;;;;;;;-7.75;74.72;102940.95;106514;1260;60777;-88
2024/01/08 01:25:24;;;;;;;21.10;12.80;;;;;;;-7.84;74.52;102944.58;106396;1254;140840;-87
2024/01/08 01:27:51;;;;;;;21.90;13.10;;;;;;;-7.94;74.37;102949.30;106636;1260;73874;-88
2024/01/08 01:30:17;;;;;;;22.10;12.50;;;;;;;-8.01;74.52;102953.46;106863;1260;64997;-88
2024/01/08 01:32:44;;;;;;;24.90;14.40;;;;;;;-8.02;74.97;102954.65;106574;1257;138881;-88
2024/01/08 01:35:11;;;;;;;25.40;14.90;;;;;;;-8.00;75.08;102958.33;106413;1257;59205;-87
2024/01/08 01:37:38;;;;;;;27.20;14.80;;;;;;;-8.01;74.86;102964.71;106477;1261;138616;-88
2024/01/08 01:40:05;;;;;;;26.20;15.60;;;;;;;-8.04;74.87;102963.92;106689;1257;73837;-88
2024/01/08 01:42:32;;;;;;;24.70;12.80;;;;;;;-8.04;75.07;102965.66;106592;1254;139417;-86
2024/01/08 01:44:59;;;;;;;22.70;14.60;;;;;;;-8.04;75.21;102970.54;106683;1261;71160;-87
2024/01/08 01:47:27;;;;;;;21.20;12.20;;;;;;;-8.07;75.33;102969.65;106675;1254;58629;-88
2024/01/08 01:49:54;;;;;;;24.40;13.90;;;;;;;-8.09;75.23;102971.41;106478;1254;138645;-88
2024/01/08 01:52:21;;;;;;;21.10;12.60;;;;;;;-8.18;74.76;102962.51;106399;1255;73870;-88
2024/01/08 01:54:49;;;;;;;20.60;11.90;;;;;;;-8.29;75.03;102967.33;106343;1254;139034;-89
2024/01/08 01:57:15;;;;;;;22.60;12.40;;;;;;;-8.36;75.07;102963.88;106755;1254;72711;-89
2024/01/08 01:59:42;;;;;;;22.70;12.20;;;;;;;-8.40;75.34;102968.07;106765;1260;60555;-89
2024/01/08 02:02:10;;;;;;;23.30;12.30;;;;;;;-8.46;75.04;102975.05;106555;1257;138473;-89
2024/01/08 02:04:37;;;;;;;21.80;12.20;;;;;;;-8.50;75.09;102980.22;106931;1254;72320;-89
2024/01/08 02:07:04;;;;;;;25.80;12.90;;;;;;;-8.52;75.12;102979.23;107243;1255;137755;-88
2024/01/08 02:09:31;;;;;;;19.40;11.20;;;;;;;-8.55;75.55;102976.78;107390;1259;72727;-87
2024/01/08 02:11:58;;;;;;;19.50;11.30;;;;;;;-8.63;75.10;102987.36;106763;1260;60681;-87
2024/01/08 02:14:25;;;;;;;23.90;12.90;;;;;;;-8.71;74.95;102992.27;106554;1254;138553;-88
2024/01/08 02:16:51;;;;;;;18.70;12.10;;;;;;;-8.81;75.07;102996.02;106705;1254;72243;-88
2024/01/08 02:19:18;;;;;;;21.40;12.90;;;;;;;-8.89;75.16;102999.16;106436;1270;139363;-88
2024/01/08 02:21:46;;;;;;;23.70;13.60;;;;;;;-8.96;75.19;103006.91;106368;1263;72617;-89
2024/01/08 02:24:12;;;;;;;22.90;13.30;;;;;;;-9.03;75.34;103015.30;106334;1260;60893;-88
2024/01/08 02:26:39;;;;;;;24.40;13.00;;;;;;;-9.08;75.23;103016.65;106701;1254;138138;-88
2024/01/08 02:29:06;;;;;;;25.80;13.20;;;;;;;-9.09;75.54;103014.61;106636;1260;72238;-89
2024/01/08 02:31:32;;;;;;;22.50;13.20;;;;;;;-9.14;75.31;103016.67;106405;1254;139033;-88
2024/01/08 02:33:59;;;;;;;26.30;14.50;;;;;;;-9.18;75.64;103017.10;106474;1254;71431;-89
2024/01/08 02:36:26;;;;;;;22.80;12.50;;;;;;;-9.23;75.49;103015.18;106569;1254;139143;-89
2024/01/08 02:38:55;;;;;;;23.80;14.30;;;;;;;-9.25;75.31;103016.14;106785;1259;60361;-88
2024/01/08 02:41:22;;;;;;;21.40;12.40;;;;;;;-9.28;75.44;103018.02;106553;1262;73939;-88
2024/01/08 02:43:49;;;;;;;26.00;13.30;;;;;;;-9.30;75.40;103021.81;106554;1262;138858;-88
2024/01/08 02:46:15;;;;;;;28.70;15.20;;;;;;;-9.34;75.61;103023.42;106836;1254;73166;-88
2024/01/08 02:48:42;;;;;;;25.90;13.70;;;;;;;-9.39;75.53;103022.41;106551;1254;138611;-87
2024/01/08 02:51:09;;;;;;;22.60;13.20;;;;;;;-9.42;75.76;103030.61;106612;1260;61021;-88
2024/01/08 02:53:36;;;;;;;22.80;13.10;;;;;;;-9.47;75.72;103035.42;106779;1259;74399;-87
2024/01/08 02:56:03;;;;;;;29.60;15.00;;;;;;;-9.50;75.98;103034.59;106763;1258;139178;-88
2024/01/08 02:58:30;;;;;;;25.40;13.90;;;;;;;-9.52;75.80;103034.65;106882;1261;71429;-87
2024/01/08 03:00:59;;;;;;;28.40;14.10;;;;;;;-9.54;75.73;103033.14;106529;1259;138602;-87
2024/01/08 03:03:26;;;;;;;23.40;12.70;;;;;;;-9.56;75.75;103034.45;106506;1254;60450;-87
2024/01/08 03:05:54;;;;;;;27.20;14.20;;;;;;;-9.59;75.83;103033.79;106378;1254;72961;-88
2024/01/08 03:08:21;;;;;;;18.60;11.10;;;;;;;-9.58;75.80;103038.98;106376;1255;138601;-88
2024/01/08 03:10:47;;;;;;;29.00;14.30;;;;;;;-9.58;76.03;103034.10;106906;1259;72660;-88
2024/01/08 03:13:15;;;;;;;24.70;14.10;;;;;;;-9.58;75.88;103033.04;106585;1254;138608;-89
2024/01/08 03:15:41;;;;;;;24.30;14.20;;;;;;;-9.59;76.06;103033.73;106701;1254;60319;-87
2024/01/08 03:18:08;;;;;;;26.40;14.20;;;;;;;-9.59;75.94;103034.62;106670;1254;76236;-88
2024/01/08 03:20:35;;;;;;;24.50;13.90;;;;;;;-9.58;76.05;103030.95;106729;1254;138564;-88
2024/01/08 03:23:02;;;;;;;25.70;13.90;;;;;;;-9.59;76.18;103028.73;106957;1254;71394;-87
2024/01/08 03:25:28;;;;;;;24.80;12.60;;;;;;;-9.60;76.15;103028.14;106751;1259;139029;-88
2024/01/08 03:27:55;;;;;;;23.20;14.40;;;;;;;-9.60;76.08;103029.82;106634;1254;60919;-88
2024/01/08 03:30:22;;;;;;;28.20;13.80;;;;;;;-9.60;76.14;103027.96;106529;1260;138520;-88
2024/01/08 03:32:48;;;;;;;25.70;13.70;;;;;;;-9.60;76.06;103027.77;106621;1254;64523;-87
2024/01/08 03:35:18;;;;;;;23.10;13.20;;;;;;;-9.60;76.22;103027.45;106689;1255;72654;-86
2024/01/08 03:37:45;;;;;;;24.80;13.10;;;;;;;-9.60;76.09;103027.23;106681;1254;138490;-87
2024/01/08 03:40:12;;;;;;;24.40;12.80;;;;;;;-9.60;76.33;103030.98;106653;1257;60370;-88
2024/01/08 03:42:38;;;;;;;27.40;13.70;;;;;;;-9.59;76.13;103032.35;106638;1254;139167;-88
2024/01/08 03:45:06;;;;;;;26.40;13.80;;;;;;;-9.59;76.01;103031.23;106627;1254;65262;-87
2024/01/08 03:47:32;;;;;;;25.40;13.60;;;;;;;-9.59;76.22;103032.67;106540;1254;72408;-86
2024/01/08 03:49:59;;;;;;;23.90;13.50;;;;;;;-9.60;76.15;103038.38;106634;1254;138335;-87
2024/01/08 03:52:26;;;;;;;25.10;13.40;;;;;;;-9.62;75.57;103031.60;106713;1254;60345;-87
2024/01/08 03:54:53;;;;;;;22.10;13.20;;;;;;;-9.61;76.17;103034.64;107003;1260;138692;-87
2024/01/08 03:57:19;;;;;;;24.00;13.20;;;;;;;-9.61;75.88;103037.84;107017;1254;65042;-88
2024/01/08 03:59:46;;;;;;;22.70;13.60;;;;;;;-9.61;76.08;103045.02;107032;1254;72806;-88
2024/01/08 04:02:13;;;;;;;23.00;13.10;;;;;;;-9.60;76.00;103045.34;109038;1254;137253;-86
2024/01/08 04:04:42;;;;;;;25.40;13.60;;;;;;;-9.55;76.18;103042.05;108706;1254;60265;-86
2024/01/08 04:07:09;;;;;;;26.40;14.50;;;;;;;-9.40;76.43;103048.44;108050;1255;139086;-86
2024/01/08 04:09:36;;;;;;;26.70;14.60;;;;;;;-9.26;76.13;103059.23;108376;1254;64844;-85
2024/01/08 04:12:04;;;;;;;26.30;13.90;;;;;;;-9.14;76.10;103058.56;108256;1254;71212;-87
2024/01/08 04:14:31;;;;;;;26.90;14.70;;;;;;;-9.03;76.23;103060.92;108439;1254;137392;-87
2024/01/08 04:16:58;;;;;;;29.70;16.10;;;;;;;-8.93;76.19;103062.59;106717;1256;60563;-87
2024/01/08 04:19:24;;;;;;;38.30;19.40;;;;;;;-8.84;76.14;103066.65;106652;1254;138320;-87
2024/01/08 04:21:52;;;;;;;36.50;17.90;;;;;;;-8.76;76.00;103068.63;106542;1254;66277;-87
2024/01/08 04:24:18;;;;;;;31.90;18.00;;;;;;;-8.72;75.50;103074.40;106804;1254;72720;-87
2024/01/08 04:26:45;;;;;;;43.40;20.30;;;;;;;-8.69;75.19;103078.34;106647;1254;138499;-86
2024/01/08 04:29:12;;;;;;;42.50;19.40;;;;;;;-8.67;75.13;103081.09;106789;1254;60504;-87
2024/01/08 04:31:39;;;;;;;43.60;20.60;;;;;;;-8.68;75.30;103082.42;106757;1254;138591;-87
2024/01/08 04:34:07;;;;;;;46.00;21.70;;;;;;;-8.73;74.76;103082.81;106649;1258;66545;-86
2024/01/08 04:36:33;;;;;;;38.20;19.70;;;;;;;-8.76;74.60;103084.39;106403;1254;139250;-87
2024/01/08 04:39:01;;;;;;;39.50;19.20;;;;;;;-8.82;74.45;103083.33;106590;1254;60425;-88
2024/01/08 04:41:27;;;;;;;38.30;19.50;;;;;;;-8.89;74.19;103074.60;106567;1260;60409;-86
2024/01/08 04:43:54;;;;;;;39.20;19.10;;;;;;;-8.95;73.79;103083.59;106732;1254;139083;-86
2024/01/08 04:46:21;;;;;;;35.30;19.10;;;;;;;-9.02;73.81;103087.55;106796;1259;65504;-86
2024/01/08 04:48:48;;;;;;;34.30;18.00;;;;;;;-9.05;73.93;103091.72;106681;1259;138014;-86
2024/01/08 04:51:22;;;;;;;39.70;19.40;;;;;;;-9.09;73.85;103093.05;106427;1255;60361;-86
2024/01/08 04:53:49;;;;;;;31.40;17.10;;;;;;;-9.14;73.71;103090.01;106512;1260;60429;-87
2024/01/08 04:56:23;;;;;;;31.90;17.20;;;;;;;-9.22;73.54;103092.26;106524;1257;138817;-88
2024/01/08 04:58:50;;;;;;;30.20;16.70;;;;;;;-9.32;73.73;103091.20;106971;1254;66428;-87
2024/01/08 05:01:17;;;;;;;31.30;16.80;;;;;;;-9.41;73.85;103088.73;106625;1260;138845;-86
2024/01/08 05:03:44;;;;;;;29.40;16.20;;;;;;;-9.50;73.86;103094.06;106583;1257;60600;-86
2024/01/08 05:06:11;;;;;;;33.90;17.90;;;;;;;-9.61;73.77;103098.61;106754;1254;60350;-86
2024/01/08 05:08:38;;;;;;;32.30;16.90;;;;;;;-9.71;73.75;103104.86;106502;1254;138899;-87
2024/01/08 05:11:08;;;;;;;31.90;16.40;;;;;;;-9.82;73.65;103107.99;106683;1254;68365;-86
2024/01/08 05:13:35;;;;;;;35.50;17.90;;;;;;;-9.89;73.95;103114.20;106632;1254;138944;-85
2024/01/08 05:16:02;;;;;;;34.20;17.70;;;;;;;-9.95;74.12;103119.86;106578;1254;62422;-86
2024/01/08 05:18:29;;;;;;;37.10;20.10;;;;;;;-10.00;74.14;103127.47;106492;1260;138767;-86
2024/01/08 05:20:59;;;;;;;39.70;19.30;;;;;;;-10.04;74.00;103131.36;106801;1259;73812;-86
2024/01/08 05:23:30;;;;;;;38.30;20.80;;;;;;;-10.10;74.24;103134.54;106504;1254;65100;-86
2024/01/08 05:25:59;;;;;;;43.80;21.30;;;;;;;-10.15;74.30;103134.57;106793;1254;139072;-86
2024/01/08 05:28:27;;;;;;;48.90;22.40;;;;;;;-10.19;74.45;103138.30;106738;1256;61360;-88
2024/01/08 05:30:54;;;;;;;48.30;22.60;;;;;;;-10.24;74.36;103140.54;107063;1254;139369;-87
2024/01/08 05:33:21;;;;;;;52.60;25.40;;;;;;;-10.30;74.36;103149.16;107388;1254;73252;-87
2024/01/08 05:35:48;;;;;;;47.20;23.20;;;;;;;-10.40;74.19;103156.20;106602;1259;64971;-85
2024/01/08 05:38:15;;;;;;;46.20;23.00;;;;;;;-10.53;73.96;103160.33;106344;1261;138599;-86
2024/01/08 05:40:42;;;;;;;44.50;21.30;;;;;;;-10.64;73.71;103155.77;106595;1258;60658;-87
2024/01/08 05:43:08;;;;;;;45.90;21.90;;;;;;;-10.72;74.02;103157.16;106609;1254;138924;-90
2024/01/08 05:45:35;;;;;;;49.60;25.00;;;;;;;-10.79;73.83;103161.98;106836;1254;73846;-88
2024/01/08 05:48:02;;;;;;;51.00;23.90;;;;;;;-10.83;74.17;103158.73;106927;1254;64474;-88
2024/01/08 05:50:29;;;;;;;60.20;26.90;;;;;;;-10.88;73.88;103157.29;106503;1254;139212;-89
2024/01/08 05:52:56;;;;;;;61.30;29.40;;;;;;;-10.90;74.14;103160.12;106781;1261;64045;-90
2024/01/08 05:55:23;;;;;;;68.90;31.90;;;;;;;-10.92;74.23;103162.29;106618;1254;138773;-88
2024/01/08 05:57:50;;;;;;;74.00;32.40;;;;;;;-10.93;74.26;103162.99;106766;1260;72605;-86
2024/01/08 06:00:17;;;;;;;101.40;38.40;;;;;;;-10.93;74.36;103164.84;106840;1259;64993;-88
2024/01/08 06:02:44;;;;;;;126.40;41.70;;;;;;;-10.97;74.22;103169.48;106375;1257;138721;-88
2024/01/08 06:05:11;;;;;;;112.30;39.10;;;;;;;-11.00;74.12;103176.84;106552;1257;59734;-90
2024/01/08 06:07:38;;;;;;;107.80;35.80;;;;;;;-11.02;74.25;103183.73;106554;1254;138871;-89
2024/01/08 06:10:06;;;;;;;97.40;33.90;;;;;;;-11.02;74.17;103192.46;106855;1254;73910;-89
2024/01/08 06:12:32;;;;;;;92.90;31.40;;;;;;;-11.01;74.04;103198.06;106906;1254;138750;-87
2024/01/08 06:14:59;;;;;;;95.50;31.20;;;;;;;-11.02;74.22;103202.77;106586;1260;71339;-87
2024/01/08 06:17:26;;;;;;;86.90;30.80;;;;;;;-11.04;73.99;103209.06;106776;1260;60520;-87
2024/01/08 06:19:53;;;;;;;82.80;29.60;;;;;;;-11.07;73.97;103209.39;106523;1254;139877;-87
2024/01/08 06:22:20;;;;;;;81.10;30.30;;;;;;;-11.09;74.14;103211.58;106593;1257;73878;-88
2024/01/08 06:24:47;;;;;;;75.40;29.10;;;;;;;-11.13;73.67;103213.10;106610;1254;139119;-90
2024/01/08 06:27:14;;;;;;;105.80;37.60;;;;;;;-11.17;73.80;103209.96;106803;1259;73263;-88
2024/01/08 06:29:41;;;;;;;119.70;43.10;;;;;;;-11.18;73.84;103212.55;106572;1254;60447;-89
2024/01/08 06:32:10;;;;;;;174.80;55.30;;;;;;;-11.23;73.70;103212.86;106524;1254;139182;-89
2024/01/08 06:34:36;;;;;;;154.40;51.60;;;;;;;-11.25;73.91;103208.58;107031;1254;72962;-89
2024/01/08 06:37:03;;;;;;;156.40;55.00;;;;;;;-11.26;73.86;103212.45;106960;1254;139036;-88
2024/01/08 06:39:30;;;;;;;135.60;53.50;;;;;;;-11.26;73.84;103222.08;107884;1259;72645;-89
2024/01/08 06:41:57;;;;;;;150.50;58.30;;;;;;;-11.27;73.93;103224.71;108099;1254;60348;-89
2024/01/08 06:44:23;;;;;;;112.50;44.80;;;;;;;-11.25;74.01;103227.71;107859;1260;137974;-89
2024/01/08 06:46:50;;;;;;;103.70;39.20;;;;;;;-11.23;74.34;103235.98;108245;1254;73927;-89
2024/01/08 06:49:17;;;;;;;147.30;56.30;;;;;;;-11.06;74.83;103238.11;108030;1254;138416;-90
2024/01/08 06:51:44;;;;;;;98.20;42.40;;;;;;;-10.88;75.30;103232.69;108323;1257;72096;-89
2024/01/08 06:54:11;;;;;;;84.80;37.30;;;;;;;-10.83;74.95;103235.14;107341;1256;59150;-89
2024/01/08 06:56:38;;;;;;;81.60;36.90;;;;;;;-10.87;74.66;103241.84;106724;1254;138991;-89
2024/01/08 06:59:06;;;;;;;118.00;46.80;;;;;;;-10.89;74.56;103243.98;106828;1254;74054;-89
2024/01/08 07:01:33;;;;;;;93.30;39.70;;;;;;;-10.90;74.39;103243.42;106658;1257;138876;-88
2024/01/08 07:04:00;;;;;;;83.40;36.80;;;;;;;-10.92;74.54;103247.77;106895;1254;74149;-87
2024/01/08 07:06:32;;;;;;;78.90;34.40;;;;;;;-10.91;74.36;103254.42;106691;1260;138699;-88
2024/01/08 07:09:10;;;;;;;61.60;28.80;;;;;;;-10.93;74.47;103265.16;106678;1255;60492;-88
2024/01/08 07:11:37;;;;;;;74.00;35.10;;;;;;;-10.92;74.54;103271.60;106529;1262;72097;-89
2024/01/08 07:14:03;;;;;;;60.50;27.30;;;;;;;-10.92;74.79;103275.75;106608;1258;139481;-89
2024/01/08 07:16:30;;;;;;;99.80;41.90;;;;;;;-10.89;74.62;103281.81;106593;1257;73127;-88
2024/01/08 07:18:57;;;;;;;69.30;29.20;;;;;;;-10.83;75.03;103283.66;106458;1256;139048;-87
2024/01/08 07:21:24;;;;;;;68.00;32.30;;;;;;;-10.77;75.26;103285.36;106984;1254;60505;-88
2024/01/08 07:23:50;;;;;;;63.90;28.40;;;;;;;-10.70;75.56;103287.95;106970;1260;72677;-89
2024/01/08 07:26:17;;;;;;;49.20;23.20;;;;;;;-10.64;75.35;103281.56;106989;1254;139391;-89
2024/01/08 07:28:45;;;;;;;52.10;23.40;;;;;;;-10.56;75.68;103281.27;107028;1254;72393;-89
2024/01/08 07:31:12;;;;;;;44.50;20.70;;;;;;;-10.52;75.53;103278.30;106880;1256;138704;-88
2024/01/08 07:33:41;;;;;;;45.00;21.90;;;;;;;-10.43;75.74;103281.61;107223;1254;60213;-89
2024/01/08 07:36:08;;;;;;;46.30;23.60;;;;;;;-10.29;76.11;103285.04;106790;1257;72519;-87
2024/01/08 07:38:35;;;;;;;49.30;23.90;;;;;;;-10.18;76.25;103290.55;106564;1254;138601;-89
2024/01/08 07:41:02;;;;;;;47.60;23.80;;;;;;;-10.08;76.23;103300.11;106709;1254;71204;-90
2024/01/08 07:43:29;;;;;;;53.10;25.60;;;;;;;-9.98;76.35;103301.13;106512;1257;139131;-89
2024/01/08 07:45:56;;;;;;;50.00;24.40;;;;;;;-9.88;76.06;103304.09;106843;1254;60364;-89
2024/01/08 07:48:22;;;;;;;46.50;23.80;;;;;;;-9.82;76.14;103303.20;106646;1254;72653;-88
2024/01/08 07:50:49;;;;;;;48.30;24.90;;;;;;;-9.76;76.18;103302.98;106781;1262;67400;-88
2024/01/08 07:53:16;;;;;;;52.00;25.20;;;;;;;-9.63;76.45;103312.94;106542;1258;71820;-89
2024/01/08 07:55:43;;;;;;;58.80;28.00;;;;;;;-9.49;76.68;103311.20;106672;1260;139077;-89
2024/01/08 07:58:13;;;;;;;63.30;28.90;;;;;;;-9.36;76.31;103316.23;106976;1254;60374;-89
2024/01/08 08:00:45;;;;;;;73.40;31.50;;;;;;;-9.36;76.13;103324.20;107305;1257;138606;-89
2024/01/08 08:03:14;;;;;;;73.80;30.00;;;;;;;-9.41;76.08;103321.80;107355;1254;67688;-89
2024/01/08 08:05:44;;;;;;;69.70;30.80;;;;;;;-9.42;76.42;103323.86;108057;1254;72630;-90
2024/01/08 08:08:11;;;;;;;55.20;25.00;;;;;;;-9.40;76.34;103327.41;108769;1254;137710;-88
2024/01/08 08:10:37;;;;;;;58.00;25.70;;;;;;;-9.37;76.56;103326.15;109204;1254;57967;-89
2024/01/08 08:13:04;;;;;;;56.40;24.80;;;;;;;-9.35;76.13;103328.23;109110;1254;137785;-89
2024/01/08 08:15:31;;;;;;;51.50;23.50;;;;;;;-9.35;76.21;103336.02;108860;1254;226836;-89
2024/01/08 08:17:58;;;;;;;47.60;22.30;;;;;;;-9.31;76.60;103337.70;109071;1254;71384;-88
2024/01/08 08:20:24;;;;;;;51.90;24.10;;;;;;;-9.30;76.14;103338.30;108731;1256;137540;-89
2024/01/08 08:22:51;;;;;;;49.80;23.90;;;;;;;-9.27;76.42;103338.56;108522;1254;58852;-89
2024/01/08 08:25:18;;;;;;;39.80;20.00;;;;;;;-9.22;76.52;103339.79;106502;1254;138510;-90
2024/01/08 08:27:45;;;;;;;42.00;22.00;;;;;;;-9.16;76.35;103347.49;106734;1255;64848;-89
2024/01/08 08:30:12;;;;;;;45.70;23.00;;;;;;;-9.14;76.45;103354.69;106851;1254;72589;-89
2024/01/08 08:32:39;;;;;;;55.70;27.80;;;;;;;-9.11;76.67;103358.09;106628;1254;138602;-89
2024/01/08 08:35:08;;;;;;;71.80;32.50;;;;;;;-9.09;76.76;103356.23;106656;1259;60395;-89
2024/01/08 08:37:36;;;;;;;73.90;34.00;;;;;;;-9.07;76.54;103353.90;106667;1254;137327;-88
2024/01/08 08:40:03;;;;;;;76.90;33.30;;;;;;;-9.03;76.45;103353.27;106795;1254;66074;-89
2024/01/08 08:42:30;;;;;;;73.90;35.10;;;;;;;-8.97;76.68;103359.08;106535;1254;138718;-88
2024/01/08 08:44:56;;;;;;;77.20;35.90;;;;;;;-8.94;76.55;103356.27;106995;1254;60443;-88
2024/01/08 08:47:23;;;;;;;70.50;31.10;;;;;;;-8.91;76.57;103353.55;106663;1260;60444;-88
2024/01/08 08:49:50;;;;;;;67.30;30.10;;;;;;;-8.89;76.28;103355.90;106771;1254;141120;-90
2024/01/08 08:52:17;;;;;;;60.80;28.80;;;;;;;-8.87;76.48;103352.36;107437;1256;64904;-88
2024/01/08 08:54:44;;;;;;;63.10;28.80;;;;;;;-8.81;76.56;103348.70;107455;1254;138589;-88
2024/01/08 08:57:10;;;;;;;57.00;25.50;;;;;;;-8.73;76.54;103346.30;106924;1254;60316;-88
2024/01/08 08:59:37;;;;;;;54.90;25.00;;;;;;;-8.68;76.51;103345.10;106565;1254;60845;-88
2024/01/08 09:02:04;;;;;;;40.50;20.00;;;;;;;-8.62;76.50;103353.14;106803;1254;138850;-89
2024/01/08 09:04:31;;;;;;;41.30;21.50;;;;;;;-8.57;76.28;103355.61;106811;1254;65179;-89
2024/01/08 09:06:57;;;;;;;50.50;24.80;;;;;;;-8.55;76.49;103361.67;106645;1258;138561;-88
2024/01/08 09:09:24;;;;;;;42.70;22.80;;;;;;;-8.53;76.37;103368.25;106834;1257;61109;-87
2024/01/08 09:11:51;;;;;;;51.90;24.20;;;;;;;-8.50;76.30;103370.81;106834;1258;60419;-88
2024/01/08 09:14:18;;;;;;;49.60;22.80;;;;;;;-8.47;76.64;103374.46;106651;1254;139447;-88
2024/01/08 09:16:45;;;;;;;43.50;22.50;;;;;;;-8.44;76.41;103376.85;106543;1254;65085;-88
2024/01/08 09:19:12;;;;;;;57.40;25.10;;;;;;;-8.40;76.42;103375.41;106584;1254;138519;-88
2024/01/08 09:21:38;;;;;;;48.40;23.30;;;;;;;-8.33;76.77;103372.40;106575;1260;60393;-89
2024/01/08 09:24:06;;;;;;;44.90;22.50;;;;;;;-8.29;76.50;103374.23;106635;1254;60460;-89
2024/01/08 09:26:33;;;;;;;41.10;20.40;;;;;;;-8.27;76.25;103376.48;106402;1263;138522;-89
2024/01/08 09:28:59;;;;;;;43.80;22.00;;;;;;;-8.25;76.14;103374.89;106833;1256;66227;-89
2024/01/08 09:31:26;;;;;;;38.70;18.20;;;;;;;-8.25;76.11;103370.64;106563;1254;138592;-89
2024/01/08 09:33:54;;;;;;;35.60;18.00;;;;;;;-8.19;76.36;103372.88;106548;1254;60482;-89
2024/01/08 09:36:21;;;;;;;32.90;16.20;;;;;;;-8.15;76.09;103370.09;106634;1254;60761;-90
2024/01/08 09:38:47;;;;;;;37.90;18.80;;;;;;;-8.12;76.01;103363.95;106742;1254;138925;-89
2024/01/08 09:41:17;;;;;;;41.50;20.40;;;;;;;-8.05;76.37;103364.46;106770;1259;66429;-89
2024/01/08 09:43:47;;;;;;;40.70;18.30;;;;;;;-8.01;76.42;103367.34;106651;1254;138998;-89
2024/01/08 09:46:15;;;;;;;55.90;24.10;;;;;;;-7.97;76.28;103365.30;106540;1259;60473;-89
2024/01/08 09:48:41;;;;;;;85.10;32.50;;;;;;;-7.93;76.10;103370.52;106559;1254;138955;-88
2024/01/08 09:51:08;;;;;;;61.10;27.20;;;;;;;-7.86;76.31;103369.69;106763;1256;73899;-89
2024/01/08 09:53:36;;;;;;;50.30;25.70;;;;;;;-7.81;76.17;103373.86;106480;1254;66216;-87
2024/01/08 09:56:03;;;;;;;46.90;23.70;;;;;;;-7.74;76.18;103377.52;106684;1259;138787;-88
2024/01/08 09:58:30;;;;;;;49.60;24.40;;;;;;;-7.72;76.20;103380.04;106742;1257;59617;-89
2024/01/08 10:00:57;;;;;;;46.90;24.10;;;;;;;-7.72;76.07;103372.60;106723;1254;138641;-88
2024/01/08 10:03:26;;;;;;;47.30;22.50;;;;;;;-7.69;75.91;103365.60;106687;1254;71575;-89
2024/01/08 10:05:53;;;;;;;50.10;24.30;;;;;;;-7.65;76.06;103370.70;106488;1259;66258;-88
2024/01/08 10:08:20;;;;;;;43.80;22.20;;;;;;;-7.57;75.95;103375.27;106665;1258;138419;-89
2024/01/08 10:10:46;;;;;;;39.20;19.50;;;;;;;-7.49;75.98;103376.08;106577;1259;60461;-87
2024/01/08 10:13:14;;;;;;;31.20;14.70;;;;;;;-7.43;75.92;103379.97;106621;1254;138755;-88
2024/01/08 10:15:46;;;;;;;37.00;17.80;;;;;;;-7.40;76.20;103378.71;106913;1256;72662;-89
2024/01/08 10:18:15;;;;;;;29.80;14.80;;;;;;;-7.34;75.79;103382.88;106746;1259;67503;-89
2024/01/08 10:20:44;;;;;;;30.50;13.90;;;;;;;-7.31;75.83;103385.58;106642;1254;138378;-89
2024/01/08 10:23:16;;;;;;;27.60;14.40;;;;;;;-7.28;75.54;103384.48;106801;1254;60533;-89
2024/01/08 10:25:49;;;;;;;28.10;14.90;;;;;;;-7.28;75.51;103381.54;106741;1254;138801;-89
2024/01/08 10:28:17;;;;;;;29.70;14.90;;;;;;;-7.24;75.67;103377.06;106799;1256;72704;-89
2024/01/08 10:30:43;;;;;;;29.70;15.50;;;;;;;-7.19;75.68;103377.18;106740;1259;139375;-88
2024/01/08 10:33:10;;;;;;;32.10;15.10;;;;;;;-7.13;75.56;103386.03;106830;1256;71430;-89
2024/01/08 10:35:37;;;;;;;34.10;16.20;;;;;;;-7.09;75.48;103385.48;106805;1254;60534;-89
2024/01/08 10:38:04;;;;;;;31.50;16.60;;;;;;;-7.06;75.66;103385.80;106564;1260;138858;-88
2024/01/08 10:40:30;;;;;;;31.60;16.40;;;;;;;-6.98;75.44;103380.10;106549;1255;72572;-88
2024/01/08 10:42:57;;;;;;;29.10;16.00;;;;;;;-6.89;75.73;103376.77;106528;1258;139066;-88
2024/01/08 10:45:24;;;;;;;32.20;16.40;;;;;;;-6.85;75.63;103375.56;106596;1254;71095;-88
2024/01/08 10:48:22;;;;;;;40.00;21.30;;;;;;;-6.82;75.17;103372.31;106437;1262;60566;-87
2024/01/08 10:50:52;;;;;;;39.80;19.70;;;;;;;-6.77;75.39;103369.39;106533;1254;138403;-88
2024/01/08 10:53:45;;;;;;;41.50;19.70;;;;;;;-6.70;75.57;103368.34;106720;1253;72519;-89
2024/01/08 10:56:16;;;;;;;38.50;20.50;;;;;;;-6.59;75.12;103368.59;106855;1256;139059;-90
2024/01/08 10:58:45;;;;;;;35.30;18.80;;;;;;;-6.50;75.44;103368.83;106684;1258;73356;-88